createdAt,value
2022-08-11T00:00:36.781Z,19.53
2022-08-11T00:03:07.837Z,19.51
2022-08-11T00:05:45.133Z,19.47
2022-08-11T00:08:21.487Z,19.41
2022-08-11T00:10:57.603Z,19.37
2022-08-11T00:13:35.691Z,19.33
2022-08-11T00:16:05.019Z,19.29
2022-08-11T00:18:41.153Z,19.23
2022-08-11T00:21:08.679Z,19.22
2022-08-11T00:23:42.439Z,19.20
2022-08-11T00:26:10.016Z,19.18
2022-08-11T00:28:37.301Z,19.15
2022-08-11T00:31:06.843Z,19.12
2022-08-11T00:33:45.351Z,19.09
2022-08-11T00:36:15.616Z,19.08
2022-08-11T00:38:45.180Z,19.10
2022-08-11T00:41:33.235Z,19.08
2022-08-11T00:44:24.865Z,19.04
2022-08-11T00:47:03.496Z,19.00
2022-08-11T00:49:45.532Z,18.95
2022-08-11T00:52:40.154Z,18.92
2022-08-11T00:55:47.201Z,18.88
2022-08-11T00:58:44.593Z,18.82
2022-08-11T01:01:18.392Z,18.80
2022-08-11T01:04:09.368Z,18.78
2022-08-11T01:07:14.143Z,18.75
2022-08-11T01:09:41.388Z,18.71
2022-08-11T01:12:40.477Z,18.71
2022-08-11T01:15:40.196Z,18.68
2022-08-11T01:18:22.126Z,18.67
2022-08-11T01:21:09.257Z,18.63
2022-08-11T01:24:10.571Z,18.58
2022-08-11T01:26:56.010Z,18.53
2022-08-11T01:30:00.608Z,18.50
2022-08-11T01:32:57.092Z,18.48
2022-08-11T01:35:51.319Z,18.48
2022-08-11T01:38:31.870Z,18.46
2022-08-11T01:41:23.075Z,18.42
2022-08-11T01:44:20.768Z,18.37
2022-08-11T01:46:54.429Z,18.35
2022-08-11T01:50:06.756Z,18.32
2022-08-11T01:52:20.198Z,18.30
2022-08-11T01:55:24.013Z,18.25
2022-08-11T01:58:16.243Z,18.22
2022-08-11T02:00:53.090Z,18.20
2022-08-11T02:03:37.497Z,18.15
2022-08-11T02:06:35.444Z,18.11
2022-08-11T02:09:09.820Z,18.06
2022-08-11T02:11:38.243Z,18.05
2022-08-11T02:14:53.579Z,18.04
2022-08-11T02:18:06.006Z,18.02
2022-08-11T02:21:05.735Z,18.01
2022-08-11T02:24:06.156Z,17.98
2022-08-11T02:26:44.641Z,17.93
2022-08-11T02:29:24.715Z,17.91
2022-08-11T02:32:28.636Z,17.89
2022-08-11T02:35:19.277Z,17.84
2022-08-11T02:37:55.116Z,17.82
2022-08-11T02:40:34.778Z,17.81
2022-08-11T02:43:10.493Z,17.80
2022-08-11T02:45:55.919Z,17.80
2022-08-11T02:49:12.574Z,17.79
2022-08-11T02:52:07.326Z,17.76
2022-08-11T02:54:48.023Z,17.74
2022-08-11T02:57:41.092Z,17.71
2022-08-11T03:00:12.613Z,17.67
2022-08-11T03:03:17.270Z,17.65
2022-08-11T03:06:12.797Z,17.63
2022-08-11T03:08:51.801Z,17.60
2022-08-11T03:12:31.873Z,17.57
2022-08-11T03:15:30.995Z,17.51
2022-08-11T03:18:19.914Z,17.48
2022-08-11T03:21:07.895Z,17.46
2022-08-11T03:23:56.162Z,17.46
2022-08-11T03:26:31.824Z,17.45
2022-08-11T03:29:04.883Z,17.43
2022-08-11T03:31:40.158Z,17.40
2022-08-11T03:34:11.231Z,17.39
2022-08-11T03:37:38.940Z,17.38
2022-08-11T03:40:43.737Z,17.37
2022-08-11T03:43:16.854Z,17.34
2022-08-11T03:46:14.189Z,17.33
2022-08-11T03:49:05.904Z,17.34
2022-08-11T03:51:52.148Z,17.33
2022-08-11T03:54:36.056Z,17.33
2022-08-11T03:57:40.669Z,17.35
2022-08-11T04:00:39.914Z,17.35
2022-08-11T04:03:31.349Z,17.38
2022-08-11T04:06:20.284Z,17.42
2022-08-11T04:09:17.955Z,17.45
2022-08-11T04:11:54.068Z,17.53
2022-08-11T04:15:20.476Z,17.59
2022-08-11T04:18:39.478Z,17.63
2022-08-11T04:21:06.483Z,17.64
2022-08-11T04:24:36.299Z,17.70
2022-08-11T04:27:32.786Z,17.74
2022-08-11T04:30:39.338Z,17.76
2022-08-11T04:33:35.067Z,17.79
2022-08-11T04:36:09.593Z,17.81
2022-08-11T04:39:03.839Z,17.84
2022-08-11T04:42:20.697Z,17.87
2022-08-11T04:45:02.666Z,17.92
2022-08-11T04:48:07.381Z,17.93
2022-08-11T04:51:30.982Z,17.99
2022-08-11T04:54:28.495Z,18.03
2022-08-11T04:57:23.420Z,18.08
2022-08-11T05:00:23.336Z,18.10
2022-08-11T05:03:02.975Z,18.16
2022-08-11T05:05:56.462Z,18.18
2022-08-11T05:08:48.902Z,18.22
2022-08-11T05:11:28.121Z,18.26
2022-08-11T05:14:32.042Z,18.35
2022-08-11T05:17:33.737Z,18.41
2022-08-11T05:20:19.332Z,18.48
2022-08-11T05:23:09.915Z,18.56
2022-08-11T05:26:43.160Z,18.65
2022-08-11T05:29:20.060Z,18.74
2022-08-11T05:32:15.340Z,18.84
2022-08-11T05:34:53.950Z,18.90
2022-08-11T05:37:27.575Z,18.97
2022-08-11T05:40:26.435Z,19.06
2022-08-11T05:43:23.961Z,19.12
2022-08-11T05:46:19.932Z,19.21
2022-08-11T05:49:08.079Z,19.32
2022-08-11T05:52:05.043Z,19.47
2022-08-11T05:54:59.773Z,19.64
2022-08-11T05:57:48.571Z,19.76
2022-08-11T06:00:18.793Z,19.83
2022-08-11T06:03:00.759Z,19.90
2022-08-11T06:05:43.261Z,20.01
2022-08-11T06:08:12.715Z,20.03
2022-08-11T06:10:42.329Z,19.95
2022-08-11T06:13:10.338Z,20.07
2022-08-11T06:15:45.316Z,20.14
2022-08-11T06:18:13.072Z,20.26
2022-08-11T06:20:55.042Z,20.35
2022-08-11T06:23:23.819Z,20.46
2022-08-11T06:25:52.655Z,20.52
2022-08-11T06:28:21.944Z,20.63
2022-08-11T06:30:49.203Z,20.74
2022-08-11T06:33:19.720Z,20.78
2022-08-11T06:36:03.482Z,20.81
2022-08-11T06:38:59.635Z,20.94
2022-08-11T06:41:45.049Z,20.96
2022-08-11T06:44:13.114Z,21.04
2022-08-11T06:46:46.689Z,21.11
2022-08-11T06:49:33.845Z,21.13
2022-08-11T06:52:04.587Z,21.29
2022-08-11T06:54:44.386Z,21.39
2022-08-11T06:57:33.188Z,21.43
2022-08-11T07:00:19.619Z,21.57
2022-08-11T07:03:00.758Z,21.64
2022-08-11T07:06:01.034Z,21.71
2022-08-11T07:09:23.959Z,21.83
2022-08-11T07:12:38.459Z,21.89
2022-08-11T07:15:25.302Z,21.97
2022-08-11T07:18:44.096Z,22.03
2022-08-11T07:22:00.646Z,22.11
2022-08-11T07:24:59.853Z,22.23
2022-08-11T07:27:59.190Z,22.44
2022-08-11T07:30:26.449Z,22.63
2022-08-11T07:32:56.897Z,22.76
2022-08-11T07:35:48.441Z,22.80
2022-08-11T07:38:25.386Z,22.86
2022-08-11T07:40:52.779Z,23.02
2022-08-11T07:43:20.110Z,23.12
2022-08-11T07:46:06.291Z,23.29
2022-08-11T07:48:52.221Z,23.37
2022-08-11T07:51:39.656Z,23.48
2022-08-11T07:54:16.289Z,23.58
2022-08-11T07:56:54.911Z,23.56
2022-08-11T08:00:03.549Z,23.74
2022-08-11T08:02:47.660Z,23.73
2022-08-11T08:05:34.342Z,23.94
2022-08-11T08:08:20.020Z,24.12
2022-08-11T08:11:05.873Z,24.15
2022-08-11T08:13:51.970Z,24.31
2022-08-11T08:16:38.684Z,24.48
2022-08-11T08:19:05.849Z,24.67
2022-08-11T08:21:33.002Z,24.80
2022-08-11T08:24:00.985Z,24.83
2022-08-11T08:26:48.352Z,24.90
2022-08-11T08:29:38.892Z,25.05
2022-08-11T08:32:07.332Z,25.22
2022-08-11T08:34:35.876Z,25.30
2022-08-11T08:37:03.122Z,25.45
2022-08-11T08:39:45.740Z,25.46
2022-08-11T08:42:17.612Z,25.62
2022-08-11T08:44:52.478Z,25.74
2022-08-11T08:47:41.873Z,25.93
2022-08-11T08:50:16.933Z,26.13
2022-08-11T08:52:50.939Z,26.26
2022-08-11T08:55:19.012Z,26.44
2022-08-11T08:57:49.368Z,26.58
2022-08-11T09:00:22.308Z,26.63
2022-08-11T09:02:51.710Z,26.66
2022-08-11T09:05:19.377Z,26.84
2022-08-11T09:07:47.656Z,26.80
2022-08-11T09:10:17.259Z,26.89
2022-08-11T09:12:45.032Z,26.99
2022-08-11T09:15:12.807Z,26.99
2022-08-11T09:17:47.859Z,26.99
2022-08-11T09:20:25.990Z,27.21
2022-08-11T09:26:22.378Z,27.39
2022-08-11T09:28:57.906Z,27.35
2022-08-11T09:31:26.696Z,27.44
2022-08-11T09:33:55.358Z,27.57
2022-08-11T09:36:41.777Z,27.74
2022-08-11T09:39:31.106Z,27.88
2022-08-11T09:42:03.367Z,28.00
2022-08-11T09:44:48.689Z,28.16
2022-08-11T09:47:25.885Z,28.30
2022-08-11T09:49:59.977Z,28.37
2022-08-11T09:52:30.209Z,28.44
2022-08-11T09:54:57.639Z,28.55
2022-08-11T09:57:44.352Z,28.58
2022-08-11T10:00:14.202Z,28.75
2022-08-11T10:02:46.500Z,28.88
2022-08-11T10:05:35.102Z,28.87
2022-08-11T10:08:03.573Z,29.08
2022-08-11T10:10:35.413Z,29.12
2022-08-11T10:13:05.735Z,29.19
2022-08-11T10:16:03.638Z,29.26
2022-08-11T10:18:53.097Z,29.39
2022-08-11T10:21:28.396Z,29.37
2022-08-11T10:24:17.483Z,29.33
2022-08-11T10:26:51.445Z,29.32
2022-08-11T10:29:59.814Z,29.45
2022-08-11T10:32:58.604Z,29.66
2022-08-11T10:35:31.951Z,29.92
2022-08-11T10:38:06.202Z,30.17
2022-08-11T10:40:41.085Z,30.38
2022-08-11T10:44:01.761Z,30.59
2022-08-11T10:46:29.840Z,30.60
2022-08-11T10:48:58.119Z,30.63
2022-08-11T10:51:50.997Z,30.64
2022-08-11T10:54:39.977Z,30.54
2022-08-11T10:57:27.788Z,30.61
2022-08-11T10:59:56.847Z,30.83
2022-08-11T11:02:24.271Z,31.03
2022-08-11T11:05:10.279Z,31.14
2022-08-11T11:07:50.516Z,31.27
2022-08-11T11:10:17.786Z,31.47
2022-08-11T11:13:05.735Z,31.64
2022-08-11T11:15:54.640Z,31.83
2022-08-11T11:18:24.745Z,31.72
2022-08-11T11:20:57.318Z,31.61
2022-08-11T11:23:47.467Z,31.63
2022-08-11T11:26:27.189Z,31.72
2022-08-11T11:29:08.387Z,31.70
2022-08-11T11:32:09.805Z,31.81
2022-08-11T11:35:14.755Z,31.89
2022-08-11T11:38:01.907Z,32.20
2022-08-11T11:40:32.468Z,32.49
2022-08-11T11:43:00.119Z,32.53
2022-08-11T11:45:27.683Z,32.42
2022-08-11T11:47:57.123Z,32.44
2022-08-11T11:50:32.679Z,32.55
2022-08-11T11:53:02.242Z,32.63
2022-08-11T11:55:30.348Z,32.72
2022-08-11T11:58:18.895Z,32.79
2022-08-11T12:01:05.817Z,32.91
2022-08-11T12:03:34.467Z,32.90
2022-08-11T12:06:02.782Z,33.01
2022-08-11T12:08:32.709Z,33.22
2022-08-11T12:11:21.746Z,33.43
2022-08-11T12:13:50.986Z,33.45
2022-08-11T12:16:35.300Z,33.56
2022-08-11T12:19:12.505Z,33.71
2022-08-11T12:22:03.561Z,33.88
2022-08-11T12:24:50.363Z,33.95
2022-08-11T12:27:25.283Z,33.86
2022-08-11T12:30:05.825Z,33.87
2022-08-11T12:32:35.616Z,33.85
2022-08-11T12:35:03.630Z,34.09
2022-08-11T12:37:35.393Z,34.26
2022-08-11T12:40:43.256Z,34.66
2022-08-11T12:43:38.959Z,35.10
2022-08-11T12:46:12.148Z,35.36
2022-08-11T12:49:04.267Z,35.38
2022-08-11T12:52:13.865Z,35.03
2022-08-11T12:54:58.680Z,34.90
2022-08-11T12:58:05.395Z,35.09
2022-08-11T13:00:51.621Z,35.05
2022-08-11T13:03:38.796Z,35.30
2022-08-11T13:06:06.947Z,35.62
2022-08-11T13:08:35.824Z,35.74
2022-08-11T13:11:22.007Z,35.99
2022-08-11T13:13:54.948Z,36.18
2022-08-11T13:16:23.746Z,36.54
2022-08-11T13:18:53.418Z,36.64
2022-08-11T13:21:21.777Z,36.57
2022-08-11T13:24:01.086Z,36.60
2022-08-11T13:26:47.412Z,36.51
2022-08-11T13:29:22.658Z,36.33
2022-08-11T13:31:51.824Z,36.79
2022-08-11T13:34:20.513Z,37.26
2022-08-11T13:36:53.377Z,37.38
2022-08-11T13:39:26.040Z,37.63
2022-08-11T13:41:57.522Z,37.84
2022-08-11T13:44:29.214Z,37.97
2022-08-11T13:46:58.229Z,38.37
2022-08-11T13:49:26.814Z,38.66
2022-08-11T13:51:55.443Z,38.85
2022-08-11T13:54:25.974Z,39.22
2022-08-11T13:56:56.267Z,39.75
2022-08-11T13:59:30.334Z,40.32
2022-08-11T14:02:28.543Z,41.07
2022-08-11T14:05:01.257Z,42.57
2022-08-11T14:07:35.828Z,44.25
2022-08-11T14:10:06.419Z,46.00
2022-08-11T14:12:53.559Z,47.35
2022-08-11T14:15:25.079Z,49.11
2022-08-11T14:18:14.299Z,51.02
2022-08-11T14:21:01.125Z,52.09
2022-08-11T14:23:42.576Z,52.65
2022-08-11T14:26:29.298Z,53.82
2022-08-11T14:29:14.251Z,54.61
2022-08-11T14:31:47.955Z,55.72
2022-08-11T14:34:15.731Z,56.51
2022-08-11T14:36:44.529Z,57.58
2022-08-11T14:39:18.039Z,57.40
2022-08-11T14:42:13.933Z,57.65
2022-08-11T14:45:05.872Z,58.34
2022-08-11T14:47:34.998Z,58.98
2022-08-11T14:50:11.304Z,58.75
2022-08-11T14:52:59.296Z,58.94
2022-08-11T14:55:46.931Z,58.21
2022-08-11T14:58:18.734Z,59.94
2022-08-11T15:00:46.370Z,60.14
2022-08-11T15:03:14.627Z,60.64
2022-08-11T15:05:57.262Z,60.38
2022-08-11T15:08:51.283Z,59.92
2022-08-11T15:11:38.109Z,59.16
2022-08-11T15:14:07.126Z,59.03
2022-08-11T15:16:58.999Z,58.88
2022-08-11T15:19:28.952Z,59.41
2022-08-11T15:22:27.394Z,59.84
2022-08-11T15:24:55.296Z,58.59
2022-08-11T15:27:42.711Z,60.17
2022-08-11T15:30:32.798Z,59.99
2022-08-11T15:33:23.590Z,59.42
2022-08-11T15:36:10.114Z,59.41
2022-08-11T15:38:43.075Z,58.39
2022-08-11T15:41:31.431Z,58.28
2022-08-11T15:44:17.068Z,59.29
2022-08-11T15:46:47.881Z,58.58
2022-08-11T15:49:21.724Z,59.25
2022-08-11T15:52:02.973Z,59.15
2022-08-11T15:54:32.297Z,58.36
2022-08-11T15:57:05.543Z,57.38
2022-08-11T15:59:53.734Z,57.56
2022-08-11T16:02:36.374Z,58.65
2022-08-11T16:05:10.172Z,59.39
2022-08-11T16:07:40.609Z,59.45
2022-08-11T16:10:18.699Z,57.97
2022-08-11T16:13:21.474Z,58.33
2022-08-11T16:16:14.939Z,57.04
2022-08-11T16:18:52.081Z,56.00
2022-08-11T16:21:26.005Z,55.05
2022-08-11T16:24:06.873Z,55.49
2022-08-11T16:27:10.438Z,52.67
2022-08-11T16:29:25.386Z,48.10
2022-08-11T16:32:12.180Z,45.51
2022-08-11T16:34:58.440Z,43.58
2022-08-11T16:37:44.633Z,42.09
2022-08-11T16:40:12.392Z,40.62
2022-08-11T16:43:09.255Z,39.23
2022-08-11T16:45:58.911Z,38.46
2022-08-11T16:48:38.639Z,37.82
2022-08-11T16:51:07.508Z,37.17
2022-08-11T16:53:45.985Z,36.69
2022-08-11T16:56:27.877Z,36.28
2022-08-11T16:59:18.228Z,35.61
2022-08-11T17:01:53.858Z,35.10
2022-08-11T17:04:54.293Z,34.75
2022-08-11T17:07:43.159Z,34.29
2022-08-11T17:10:53.396Z,34.11
2022-08-11T17:13:26.325Z,33.61
2022-08-11T17:16:10.247Z,33.21
2022-08-11T17:18:51.515Z,32.89
2022-08-11T17:21:20.653Z,32.63
2022-08-11T17:23:55.077Z,32.27
2022-08-11T17:26:58.841Z,32.07
2022-08-11T17:29:30.906Z,31.78
2022-08-11T17:32:18.678Z,31.53
2022-08-11T17:35:05.018Z,31.37
2022-08-11T17:37:34.040Z,31.21
2022-08-11T17:40:07.946Z,31.02
2022-08-11T17:42:54.749Z,30.76
2022-08-11T17:46:01.449Z,30.55
2022-08-11T17:48:47.586Z,30.30
2022-08-11T17:51:38.858Z,30.07
2022-08-11T17:54:25.763Z,29.85
2022-08-11T17:57:21.374Z,29.66
2022-08-11T17:59:55.072Z,29.42
2022-08-11T18:02:53.890Z,29.23
2022-08-11T18:05:27.550Z,29.01
2022-08-11T18:08:15.738Z,28.85
2022-08-11T18:11:01.954Z,28.67
2022-08-11T18:13:53.377Z,28.49
2022-08-11T18:16:42.071Z,28.34
2022-08-11T18:19:28.287Z,28.16
2022-08-11T18:22:24.344Z,27.97
2022-08-11T18:25:25.265Z,27.83
2022-08-11T18:28:15.194Z,27.67
2022-08-11T18:31:06.623Z,27.51
2022-08-11T18:34:07.501Z,27.31
2022-08-11T18:37:05.888Z,27.11
2022-08-11T18:39:56.031Z,26.97
2022-08-11T18:42:42.918Z,26.84
2022-08-11T18:45:30.938Z,26.73
2022-08-11T18:48:34.148Z,26.60
2022-08-11T18:51:31.519Z,26.49
2022-08-11T18:54:26.748Z,26.39
2022-08-11T18:57:16.836Z,26.27
2022-08-11T19:00:03.948Z,26.17
2022-08-11T19:02:51.418Z,26.07
2022-08-11T19:06:32.384Z,25.96
2022-08-11T19:08:49.158Z,25.82
2022-08-11T19:11:36.506Z,25.70
2022-08-11T19:14:31.113Z,25.61
2022-08-11T19:17:44.142Z,25.50
2022-08-11T19:20:29.731Z,25.39
2022-08-11T19:23:15.815Z,25.34
2022-08-11T19:26:05.524Z,25.25
2022-08-11T19:28:53.348Z,25.18
2022-08-11T19:31:44.497Z,25.10
2022-08-11T19:34:36.642Z,24.99
2022-08-11T19:37:25.465Z,24.90
2022-08-11T19:40:13.591Z,24.81
2022-08-11T19:43:00.802Z,24.72
2022-08-11T19:45:50.514Z,24.67
2022-08-11T19:48:40.567Z,24.60
2022-08-11T19:51:27.746Z,24.53
2022-08-11T19:54:13.995Z,24.46
2022-08-11T19:57:01.440Z,24.38
2022-08-11T19:59:47.372Z,24.32
2022-08-11T20:02:32.967Z,24.23
2022-08-11T20:05:18.623Z,24.16
2022-08-11T20:08:05.594Z,24.07
2022-08-11T20:10:53.410Z,24.00
2022-08-11T20:13:41.624Z,23.90
2022-08-11T20:16:30.553Z,23.81
2022-08-11T20:19:25.946Z,23.73
2022-08-11T20:22:27.055Z,23.65
2022-08-11T20:25:13.914Z,23.61
2022-08-11T20:28:01.082Z,23.54
2022-08-11T20:30:48.532Z,23.49
2022-08-11T20:33:37.841Z,23.44
2022-08-11T20:36:27.200Z,23.37
2022-08-11T20:39:14.521Z,23.31
2022-08-11T20:42:00.862Z,23.27
2022-08-11T20:44:47.972Z,23.18
2022-08-11T20:47:59.119Z,23.14
2022-08-11T20:50:42.455Z,23.08
2022-08-11T20:53:35.911Z,23.03
2022-08-11T20:56:28.822Z,22.98
2022-08-11T20:59:21.906Z,22.93
2022-08-11T21:02:09.889Z,22.89
2022-08-11T21:05:00.694Z,22.85
2022-08-11T21:07:56.741Z,22.83
2022-08-11T21:10:47.749Z,22.78
2022-08-11T21:13:39.213Z,22.73
2022-08-11T21:16:27.508Z,22.68
2022-08-11T21:20:01.377Z,22.64
2022-08-11T21:22:34.612Z,22.59
2022-08-11T21:25:20.742Z,22.55
2022-08-11T21:28:09.022Z,22.49
2022-08-11T21:30:57.496Z,22.46
2022-08-11T21:33:46.367Z,22.40
2022-08-11T21:36:33.077Z,22.35
2022-08-11T21:39:20.818Z,22.32
2022-08-11T21:42:13.717Z,22.29
2022-08-11T21:45:01.262Z,22.24
2022-08-11T21:47:48.367Z,22.19
2022-08-11T21:50:34.609Z,22.15
2022-08-11T21:53:20.864Z,22.10
2022-08-11T21:56:06.596Z,22.07
2022-08-11T21:58:52.536Z,22.03
2022-08-11T22:01:39.587Z,22.00
2022-08-11T22:04:25.723Z,21.95
2022-08-11T22:07:12.013Z,21.91
2022-08-11T22:09:58.395Z,21.88
2022-08-11T22:12:45.285Z,21.84
2022-08-11T22:15:31.875Z,21.80
2022-08-11T22:18:20.111Z,21.74
2022-08-11T22:21:06.826Z,21.70
2022-08-11T22:23:56.894Z,21.65
2022-08-11T22:26:47.381Z,21.62
2022-08-11T22:29:39.527Z,21.58
2022-08-11T22:32:37.897Z,21.54
2022-08-11T22:35:24.647Z,21.51
2022-08-11T22:38:16.466Z,21.44
2022-08-11T22:41:02.142Z,21.39
2022-08-11T22:43:47.813Z,21.35
2022-08-11T22:46:34.455Z,21.31
2022-08-11T22:49:20.794Z,21.27
2022-08-11T22:52:07.126Z,21.23
2022-08-11T22:54:53.365Z,21.20
2022-08-11T22:57:40.182Z,21.16
2022-08-11T23:00:30.670Z,21.13
2022-08-11T23:03:37.900Z,21.07
2022-08-11T23:06:23.550Z,21.05
2022-08-11T23:09:09.421Z,21.01
2022-08-11T23:12:06.270Z,20.98
2022-08-11T23:14:54.296Z,20.95
2022-08-11T23:17:41.423Z,20.92
2022-08-11T23:20:38.849Z,20.88
2022-08-11T23:23:32.310Z,20.85
2022-08-11T23:26:18.186Z,20.81
2022-08-11T23:32:25.319Z,20.73
2022-08-11T23:35:39.997Z,20.68
2022-08-11T23:38:19.214Z,20.66
2022-08-11T23:41:05.134Z,20.63
2022-08-11T23:43:50.905Z,20.60
2022-08-11T23:46:39.830Z,20.58
2022-08-11T23:49:25.761Z,20.53
2022-08-11T23:52:11.393Z,20.51
2022-08-11T23:54:57.688Z,20.46
2022-08-11T23:57:48.939Z,20.43
